sensor_id;sensor_type;location;lat;lon;timestamp;temperature;humidity
50907;DHT22;36882;27.680;85.304;2023-07-13T00:02:07;23.20;99.90
50907;DHT22;36882;27.680;85.304;2023-07-13T00:04:37;23.30;99.90
50907;DHT22;36882;27.680;85.304;2023-07-13T00:07:07;23.30;99.90
50907;DHT22;36882;27.680;85.304;2023-07-13T00:09:37;23.20;99.90
50907;DHT22;36882;27.680;85.304;2023-07-13T00:12:21;23.20;99.90
50907;DHT22;36882;27.680;85.304;2023-07-13T00:14:51;23.20;99.90
50907;DHT22;36882;27.680;85.304;2023-07-13T00:17:20;23.20;99.90
50907;DHT22;36882;27.680;85.304;2023-07-13T00:19:50;23.20;99.90
50907;DHT22;36882;27.680;85.304;2023-07-13T00:22:21;23.20;99.90
50907;DHT22;36882;27.680;85.304;2023-07-13T00:24:51;23.30;99.90
50907;DHT22;36882;27.680;85.304;2023-07-13T00:27:21;23.30;99.90
50907;DHT22;36882;27.680;85.304;2023-07-13T00:29:51;23.30;99.90
50907;DHT22;36882;27.680;85.304;2023-07-13T00:32:21;23.30;99.90
50907;DHT22;36882;27.680;85.304;2023-07-13T00:34:51;23.30;99.90
50907;DHT22;36882;27.680;85.304;2023-07-13T00:37:21;23.30;99.90
50907;DHT22;36882;27.680;85.304;2023-07-13T00:39:51;23.30;99.90
50907;DHT22;36882;27.680;85.304;2023-07-13T00:42:20;23.40;99.90
50907;DHT22;36882;27.680;85.304;2023-07-13T00:47:57;23.40;99.90
50907;DHT22;36882;27.680;85.304;2023-07-13T00:50:27;23.50;99.90
50907;DHT22;36882;27.680;85.304;2023-07-13T00:52:57;23.50;99.90
50907;DHT22;36882;27.680;85.304;2023-07-13T00:55:27;23.40;99.90
50907;DHT22;36882;27.680;85.304;2023-07-13T00:57:58;23.50;99.90
50907;DHT22;36882;27.680;85.304;2023-07-13T01:00:28;23.60;99.90
50907;DHT22;36882;27.680;85.304;2023-07-13T01:02:59;23.60;99.90
50907;DHT22;36882;27.680;85.304;2023-07-13T01:05:35;23.60;99.90
50907;DHT22;36882;27.680;85.304;2023-07-13T01:08:06;23.60;99.90
50907;DHT22;36882;27.680;85.304;2023-07-13T01:10:38;23.70;99.90
50907;DHT22;36882;27.680;85.304;2023-07-13T01:13:10;23.90;99.90
50907;DHT22;36882;27.680;85.304;2023-07-13T01:15:44;23.90;99.90
50907;DHT22;36882;27.680;85.304;2023-07-13T01:18:24;24.10;99.90
50907;DHT22;36882;27.680;85.304;2023-07-13T01:21:03;24.20;99.90
50907;DHT22;36882;27.680;85.304;2023-07-13T01:23:33;24.40;99.90
50907;DHT22;36882;27.680;85.304;2023-07-13T01:26:03;24.50;99.90
50907;DHT22;36882;27.680;85.304;2023-07-13T01:28:32;24.40;99.90
50907;DHT22;36882;27.680;85.304;2023-07-13T01:31:06;24.40;99.90
50907;DHT22;36882;27.680;85.304;2023-07-13T01:33:39;24.40;99.90
50907;DHT22;36882;27.680;85.304;2023-07-13T01:36:10;24.50;99.90
50907;DHT22;36882;27.680;85.304;2023-07-13T01:38:40;24.50;99.90
50907;DHT22;36882;27.680;85.304;2023-07-13T01:41:11;24.40;99.90
50907;DHT22;36882;27.680;85.304;2023-07-13T01:43:41;24.50;99.90
50907;DHT22;36882;27.680;85.304;2023-07-13T01:46:11;24.70;99.90
50907;DHT22;36882;27.680;85.304;2023-07-13T01:48:50;24.80;99.90
50907;DHT22;36882;27.680;85.304;2023-07-13T01:51:20;24.90;99.90
50907;DHT22;36882;27.680;85.304;2023-07-13T01:53:50;24.90;99.90
50907;DHT22;36882;27.680;85.304;2023-07-13T01:56:20;24.90;99.90
50907;DHT22;36882;27.680;85.304;2023-07-13T01:58:50;25.10;99.90
50907;DHT22;36882;27.680;85.304;2023-07-13T02:01:21;25.10;99.90
50907;DHT22;36882;27.680;85.304;2023-07-13T02:03:51;25.00;99.90
50907;DHT22;36882;27.680;85.304;2023-07-13T02:06:21;25.10;99.90
50907;DHT22;36882;27.680;85.304;2023-07-13T02:08:51;25.10;99.90
50907;DHT22;36882;27.680;85.304;2023-07-13T02:11:20;25.20;99.90
50907;DHT22;36882;27.680;85.304;2023-07-13T02:13:50;25.30;99.90
50907;DHT22;36882;27.680;85.304;2023-07-13T02:16:21;25.40;99.90
50907;DHT22;36882;27.680;85.304;2023-07-13T02:18:50;25.50;99.90
50907;DHT22;36882;27.680;85.304;2023-07-13T02:21:22;25.70;99.90
50907;DHT22;36882;27.680;85.304;2023-07-13T02:23:52;25.90;99.90
50907;DHT22;36882;27.680;85.304;2023-07-13T02:26:22;26.10;99.90
50907;DHT22;36882;27.680;85.304;2023-07-13T02:28:51;26.30;99.90
50907;DHT22;36882;27.680;85.304;2023-07-13T02:31:22;26.30;99.90
50907;DHT22;36882;27.680;85.304;2023-07-13T05:19:11;26.60;99.90
50907;DHT22;36882;27.680;85.304;2023-07-13T05:21:41;27.10;99.90
50907;DHT22;36882;27.680;85.304;2023-07-13T05:24:11;26.90;99.90
50907;DHT22;36882;27.680;85.304;2023-07-13T05:26:52;26.70;99.90
50907;DHT22;36882;27.680;85.304;2023-07-13T05:29:22;26.60;99.90
50907;DHT22;36882;27.680;85.304;2023-07-13T05:31:53;26.60;99.90
50907;DHT22;36882;27.680;85.304;2023-07-13T05:34:23;26.50;99.90
50907;DHT22;36882;27.680;85.304;2023-07-13T05:36:53;26.30;99.90
50907;DHT22;36882;27.680;85.304;2023-07-13T05:39:23;26.20;99.90
50907;DHT22;36882;27.680;85.304;2023-07-13T05:41:53;25.90;99.90
50907;DHT22;36882;27.680;85.304;2023-07-13T05:44:23;25.60;99.90
50907;DHT22;36882;27.680;85.304;2023-07-13T05:46:52;25.30;99.90
50907;DHT22;36882;27.680;85.304;2023-07-13T05:49:25;25.30;99.90
50907;DHT22;36882;27.680;85.304;2023-07-13T05:51:55;25.10;99.90
50907;DHT22;36882;27.680;85.304;2023-07-13T05:54:24;24.80;99.90
50907;DHT22;36882;27.680;85.304;2023-07-13T05:56:54;24.80;99.90
50907;DHT22;36882;27.680;85.304;2023-07-13T05:59:23;24.90;99.90
50907;DHT22;36882;27.680;85.304;2023-07-13T06:01:54;24.90;99.90
50907;DHT22;36882;27.680;85.304;2023-07-13T06:04:24;25.00;99.90
50907;DHT22;36882;27.680;85.304;2023-07-13T06:06:53;25.10;99.90
50907;DHT22;36882;27.680;85.304;2023-07-13T06:09:23;25.00;99.90
50907;DHT22;36882;27.680;85.304;2023-07-13T06:11:53;24.90;99.90
50907;DHT22;36882;27.680;85.304;2023-07-13T06:14:23;24.90;99.90
50907;DHT22;36882;27.680;85.304;2023-07-13T06:16:54;25.00;99.90
50907;DHT22;36882;27.680;85.304;2023-07-13T06:19:24;25.00;99.90
50907;DHT22;36882;27.680;85.304;2023-07-13T06:21:53;24.90;99.90
50907;DHT22;36882;27.680;85.304;2023-07-13T06:24:24;25.10;99.90
50907;DHT22;36882;27.680;85.304;2023-07-13T06:26:56;25.20;99.90
50907;DHT22;36882;27.680;85.304;2023-07-13T06:29:26;25.40;99.90
50907;DHT22;36882;27.680;85.304;2023-07-13T06:31:56;25.50;99.90
50907;DHT22;36882;27.680;85.304;2023-07-13T06:34:26;25.70;99.90
50907;DHT22;36882;27.680;85.304;2023-07-13T06:36:56;25.90;99.90
50907;DHT22;36882;27.680;85.304;2023-07-13T06:39:26;26.10;99.90
50907;DHT22;36882;27.680;85.304;2023-07-13T06:41:56;26.20;99.90
50907;DHT22;36882;27.680;85.304;2023-07-13T06:44:25;26.20;99.90
50907;DHT22;36882;27.680;85.304;2023-07-13T06:46:55;26.10;99.90
50907;DHT22;36882;27.680;85.304;2023-07-13T06:49:25;26.20;99.90
50907;DHT22;36882;27.680;85.304;2023-07-13T06:51:55;26.10;99.90
50907;DHT22;36882;27.680;85.304;2023-07-13T06:54:25;26.20;99.90
50907;DHT22;36882;27.680;85.304;2023-07-13T06:56:55;26.10;99.90
50907;DHT22;36882;27.680;85.304;2023-07-13T06:59:25;26.40;99.90
50907;DHT22;36882;27.680;85.304;2023-07-13T07:01:56;26.60;99.90
50907;DHT22;36882;27.680;85.304;2023-07-13T07:04:26;26.80;99.90
50907;DHT22;36882;27.680;85.304;2023-07-13T07:06:55;27.20;99.90
50907;DHT22;36882;27.680;85.304;2023-07-13T07:09:26;27.30;99.90
50907;DHT22;36882;27.680;85.304;2023-07-13T07:11:56;27.40;99.90
50907;DHT22;36882;27.680;85.304;2023-07-13T07:14:31;27.50;99.90
50907;DHT22;36882;27.680;85.304;2023-07-13T07:17:03;27.40;99.90
50907;DHT22;36882;27.680;85.304;2023-07-13T07:19:35;27.50;99.90
50907;DHT22;36882;27.680;85.304;2023-07-13T07:22:05;27.60;99.90
50907;DHT22;36882;27.680;85.304;2023-07-13T07:24:34;27.60;99.90
50907;DHT22;36882;27.680;85.304;2023-07-13T07:27:05;27.60;99.90
50907;DHT22;36882;27.680;85.304;2023-07-13T07:29:37;27.40;99.90
50907;DHT22;36882;27.680;85.304;2023-07-13T07:32:15;27.90;99.90
50907;DHT22;36882;27.680;85.304;2023-07-13T07:34:57;28.20;99.90
50907;DHT22;36882;27.680;85.304;2023-07-13T07:37:30;28.20;99.90
50907;DHT22;36882;27.680;85.304;2023-07-13T07:40:02;28.60;99.90
50907;DHT22;36882;27.680;85.304;2023-07-13T07:42:35;28.90;99.90
50907;DHT22;36882;27.680;85.304;2023-07-13T07:45:05;29.00;99.90
50907;DHT22;36882;27.680;85.304;2023-07-13T07:47:35;29.10;99.90
50907;DHT22;36882;27.680;85.304;2023-07-13T07:50:06;29.30;99.90
50907;DHT22;36882;27.680;85.304;2023-07-13T07:52:36;29.30;99.90
50907;DHT22;36882;27.680;85.304;2023-07-13T07:55:07;29.00;99.90
50907;DHT22;36882;27.680;85.304;2023-07-13T07:57:40;29.30;99.90
50907;DHT22;36882;27.680;85.304;2023-07-13T08:00:13;29.40;99.90
50907;DHT22;36882;27.680;85.304;2023-07-13T08:02:46;29.20;99.90
50907;DHT22;36882;27.680;85.304;2023-07-13T08:05:18;29.10;99.90
50907;DHT22;36882;27.680;85.304;2023-07-13T08:08:03;29.00;99.90
50907;DHT22;36882;27.680;85.304;2023-07-13T08:10:36;28.60;99.90
50907;DHT22;36882;27.680;85.304;2023-07-13T08:13:06;28.30;99.90
50907;DHT22;36882;27.680;85.304;2023-07-13T08:15:38;28.10;99.90
50907;DHT22;36882;27.680;85.304;2023-07-13T08:18:09;28.10;99.90
50907;DHT22;36882;27.680;85.304;2023-07-13T08:20:39;28.00;99.90
50907;DHT22;36882;27.680;85.304;2023-07-13T08:23:10;27.90;99.90
50907;DHT22;36882;27.680;85.304;2023-07-13T08:25:40;27.90;99.90
50907;DHT22;36882;27.680;85.304;2023-07-13T08:28:10;27.60;99.90
50907;DHT22;36882;27.680;85.304;2023-07-13T08:30:40;27.50;99.90
50907;DHT22;36882;27.680;85.304;2023-07-13T08:33:10;27.30;99.90
50907;DHT22;36882;27.680;85.304;2023-07-13T08:35:39;27.30;99.90
50907;DHT22;36882;27.680;85.304;2023-07-13T08:38:09;27.00;99.90
50907;DHT22;36882;27.680;85.304;2023-07-13T08:40:39;26.70;99.90
50907;DHT22;36882;27.680;85.304;2023-07-13T08:43:16;26.50;99.90
50907;DHT22;36882;27.680;85.304;2023-07-13T08:45:51;26.50;99.90
50907;DHT22;36882;27.680;85.304;2023-07-13T08:48:58;26.40;99.90
50907;DHT22;36882;27.680;85.304;2023-07-13T08:51:44;26.30;99.90
50907;DHT22;36882;27.680;85.304;2023-07-13T08:57:03;26.50;99.90
50907;DHT22;36882;27.680;85.304;2023-07-13T08:59:40;26.10;99.90
50907;DHT22;36882;27.680;85.304;2023-07-13T09:05:10;25.80;99.90
50907;DHT22;36882;27.680;85.304;2023-07-13T09:10:46;25.30;99.90
50907;DHT22;36882;27.680;85.304;2023-07-13T09:13:43;25.00;99.90
50907;DHT22;36882;27.680;85.304;2023-07-13T09:16:18;24.90;99.90
50907;DHT22;36882;27.680;85.304;2023-07-13T09:18:51;24.70;99.90
50907;DHT22;36882;27.680;85.304;2023-07-13T09:21:29;24.70;99.90
50907;DHT22;36882;27.680;85.304;2023-07-13T09:24:34;24.50;99.90
50907;DHT22;36882;27.680;85.304;2023-07-13T09:27:21;24.60;99.90
50907;DHT22;36882;27.680;85.304;2023-07-13T09:30:02;24.50;99.90
50907;DHT22;36882;27.680;85.304;2023-07-13T09:32:34;24.70;99.90
50907;DHT22;36882;27.680;85.304;2023-07-13T09:35:15;24.70;99.90
50907;DHT22;36882;27.680;85.304;2023-07-13T09:37:46;24.60;99.90
50907;DHT22;36882;27.680;85.304;2023-07-13T09:43:24;24.50;99.90
50907;DHT22;36882;27.680;85.304;2023-07-13T09:45:54;24.50;99.90
50907;DHT22;36882;27.680;85.304;2023-07-13T09:48:24;24.40;99.90
50907;DHT22;36882;27.680;85.304;2023-07-13T09:51:14;24.40;99.90
50907;DHT22;36882;27.680;85.304;2023-07-13T09:53:44;24.40;99.90
50907;DHT22;36882;27.680;85.304;2023-07-13T09:56:29;24.30;99.90
50907;DHT22;36882;27.680;85.304;2023-07-13T09:58:59;24.40;99.90
50907;DHT22;36882;27.680;85.304;2023-07-13T10:01:34;24.50;99.90
50907;DHT22;36882;27.680;85.304;2023-07-13T10:04:16;24.50;99.90
50907;DHT22;36882;27.680;85.304;2023-07-13T10:06:47;24.50;99.90
50907;DHT22;36882;27.680;85.304;2023-07-13T10:09:19;24.50;99.90
50907;DHT22;36882;27.680;85.304;2023-07-13T10:11:50;24.50;99.90
50907;DHT22;36882;27.680;85.304;2023-07-13T10:14:22;24.70;99.90
50907;DHT22;36882;27.680;85.304;2023-07-13T10:17:00;24.70;99.90
50907;DHT22;36882;27.680;85.304;2023-07-13T10:19:32;24.80;99.90
50907;DHT22;36882;27.680;85.304;2023-07-13T10:22:24;24.80;99.90
50907;DHT22;36882;27.680;85.304;2023-07-13T10:24:55;24.90;99.90
50907;DHT22;36882;27.680;85.304;2023-07-13T10:27:33;25.00;99.90
50907;DHT22;36882;27.680;85.304;2023-07-13T10:35:28;25.00;99.90
50907;DHT22;36882;27.680;85.304;2023-07-13T10:38:16;24.90;99.90
50907;DHT22;36882;27.680;85.304;2023-07-13T10:41:06;24.90;99.90
50907;DHT22;36882;27.680;85.304;2023-07-13T10:43:47;24.90;99.90
50907;DHT22;36882;27.680;85.304;2023-07-13T10:46:22;24.90;99.90
50907;DHT22;36882;27.680;85.304;2023-07-13T10:48:55;25.10;99.90
50907;DHT22;36882;27.680;85.304;2023-07-13T10:51:27;25.10;99.90
50907;DHT22;36882;27.680;85.304;2023-07-13T10:54:19;25.10;99.90
50907;DHT22;36882;27.680;85.304;2023-07-13T10:59:38;25.30;99.90
50907;DHT22;36882;27.680;85.304;2023-07-13T11:02:28;25.40;99.90
50907;DHT22;36882;27.680;85.304;2023-07-13T11:04:59;25.30;99.90
50907;DHT22;36882;27.680;85.304;2023-07-13T11:08:18;25.30;99.90
50907;DHT22;36882;27.680;85.304;2023-07-13T11:10:53;25.10;99.90
50907;DHT22;36882;27.680;85.304;2023-07-13T11:25:02;25.00;99.90
50907;DHT22;36882;27.680;85.304;2023-07-13T11:33:20;25.00;99.90
50907;DHT22;36882;27.680;85.304;2023-07-13T11:41:21;25.00;99.90
50907;DHT22;36882;27.680;85.304;2023-07-13T11:44:05;25.00;99.90
50907;DHT22;36882;27.680;85.304;2023-07-13T11:46:35;24.90;99.90
50907;DHT22;36882;27.680;85.304;2023-07-13T11:49:06;24.90;99.90
50907;DHT22;36882;27.680;85.304;2023-07-13T11:51:37;24.80;99.90
50907;DHT22;36882;27.680;85.304;2023-07-13T11:56:57;24.90;99.90
50907;DHT22;36882;27.680;85.304;2023-07-13T11:59:30;24.80;99.90
50907;DHT22;36882;27.680;85.304;2023-07-13T12:02:01;24.70;99.90
50907;DHT22;36882;27.680;85.304;2023-07-13T12:04:33;24.70;99.90
50907;DHT22;36882;27.680;85.304;2023-07-13T12:07:18;24.60;99.90
50907;DHT22;36882;27.680;85.304;2023-07-13T12:09:48;24.50;99.90
50907;DHT22;36882;27.680;85.304;2023-07-13T12:12:22;24.50;99.90
50907;DHT22;36882;27.680;85.304;2023-07-13T12:14:54;24.60;99.90
50907;DHT22;36882;27.680;85.304;2023-07-13T12:17:23;24.50;99.90
50907;DHT22;36882;27.680;85.304;2023-07-13T12:19:54;24.60;99.90
50907;DHT22;36882;27.680;85.304;2023-07-13T12:22:23;24.60;99.90
50907;DHT22;36882;27.680;85.304;2023-07-13T12:24:53;24.50;99.90
50907;DHT22;36882;27.680;85.304;2023-07-13T12:27:26;24.50;99.90
50907;DHT22;36882;27.680;85.304;2023-07-13T12:30:02;24.50;99.90
50907;DHT22;36882;27.680;85.304;2023-07-13T12:32:32;24.50;99.90
50907;DHT22;36882;27.680;85.304;2023-07-13T12:35:21;24.60;99.90
50907;DHT22;36882;27.680;85.304;2023-07-13T12:37:52;24.60;99.90
50907;DHT22;36882;27.680;85.304;2023-07-13T12:40:33;24.60;99.90
50907;DHT22;36882;27.680;85.304;2023-07-13T12:43:04;24.70;99.90
50907;DHT22;36882;27.680;85.304;2023-07-13T12:45:35;24.70;99.90
50907;DHT22;36882;27.680;85.304;2023-07-13T12:48:06;24.70;99.90
50907;DHT22;36882;27.680;85.304;2023-07-13T12:50:41;24.70;99.90
50907;DHT22;36882;27.680;85.304;2023-07-13T12:53:18;24.70;99.90
50907;DHT22;36882;27.680;85.304;2023-07-13T12:55:59;24.60;99.90
50907;DHT22;36882;27.680;85.304;2023-07-13T12:58:41;24.60;99.90
50907;DHT22;36882;27.680;85.304;2023-07-13T13:01:17;24.60;99.90
50907;DHT22;36882;27.680;85.304;2023-07-13T13:03:50;24.60;99.90
50907;DHT22;36882;27.680;85.304;2023-07-13T13:06:28;24.70;99.90
50907;DHT22;36882;27.680;85.304;2023-07-13T13:08:59;24.60;99.90
50907;DHT22;36882;27.680;85.304;2023-07-13T13:11:31;24.50;99.90
50907;DHT22;36882;27.680;85.304;2023-07-13T13:14:01;24.60;99.90
50907;DHT22;36882;27.680;85.304;2023-07-13T13:16:46;24.70;99.90
50907;DHT22;36882;27.680;85.304;2023-07-13T13:19:25;24.60;99.90
50907;DHT22;36882;27.680;85.304;2023-07-13T13:21:56;24.60;99.90
50907;DHT22;36882;27.680;85.304;2023-07-13T13:24:28;24.50;99.90
50907;DHT22;36882;27.680;85.304;2023-07-13T13:26:58;24.40;99.90
50907;DHT22;36882;27.680;85.304;2023-07-13T13:29:27;24.20;99.90
50907;DHT22;36882;27.680;85.304;2023-07-13T13:31:57;24.00;99.90
50907;DHT22;36882;27.680;85.304;2023-07-13T13:34:27;23.90;99.90
50907;DHT22;36882;27.680;85.304;2023-07-13T13:36:57;23.70;99.90
50907;DHT22;36882;27.680;85.304;2023-07-13T13:41:59;23.40;99.90
50907;DHT22;36882;27.680;85.304;2023-07-13T13:44:29;23.30;99.90
50907;DHT22;36882;27.680;85.304;2023-07-13T13:46:59;23.30;99.90
50907;DHT22;36882;27.680;85.304;2023-07-13T13:49:29;23.20;99.90
50907;DHT22;36882;27.680;85.304;2023-07-13T13:52:00;23.20;99.90
50907;DHT22;36882;27.680;85.304;2023-07-13T13:54:30;23.20;99.90
50907;DHT22;36882;27.680;85.304;2023-07-13T13:56:59;23.20;99.90
50907;DHT22;36882;27.680;85.304;2023-07-13T13:59:29;23.20;99.90
50907;DHT22;36882;27.680;85.304;2023-07-13T14:02:01;23.10;99.90
50907;DHT22;36882;27.680;85.304;2023-07-13T14:04:31;23.10;99.90
50907;DHT22;36882;27.680;85.304;2023-07-13T14:07:01;23.20;99.90
50907;DHT22;36882;27.680;85.304;2023-07-13T14:09:31;23.30;99.90
50907;DHT22;36882;27.680;85.304;2023-07-13T14:12:03;23.30;99.90
50907;DHT22;36882;27.680;85.304;2023-07-13T14:14:34;23.30;99.90
50907;DHT22;36882;27.680;85.304;2023-07-13T14:17:04;23.20;99.90
50907;DHT22;36882;27.680;85.304;2023-07-13T14:19:34;23.10;99.90
50907;DHT22;36882;27.680;85.304;2023-07-13T14:22:04;23.20;99.90
50907;DHT22;36882;27.680;85.304;2023-07-13T14:24:34;23.20;99.90
50907;DHT22;36882;27.680;85.304;2023-07-13T14:27:04;23.30;99.90
50907;DHT22;36882;27.680;85.304;2023-07-13T14:29:35;23.10;99.90
50907;DHT22;36882;27.680;85.304;2023-07-13T14:32:09;23.10;99.90
50907;DHT22;36882;27.680;85.304;2023-07-13T14:34:40;23.10;99.90
50907;DHT22;36882;27.680;85.304;2023-07-13T14:37:14;23.10;99.90
50907;DHT22;36882;27.680;85.304;2023-07-13T14:39:49;23.10;99.90
50907;DHT22;36882;27.680;85.304;2023-07-13T14:42:31;23.10;99.90
50907;DHT22;36882;27.680;85.304;2023-07-13T14:45:02;23.20;99.90
50907;DHT22;36882;27.680;85.304;2023-07-13T14:47:33;23.20;99.90
50907;DHT22;36882;27.680;85.304;2023-07-13T14:50:14;23.10;99.90
50907;DHT22;36882;27.680;85.304;2023-07-13T14:52:48;23.20;99.90
50907;DHT22;36882;27.680;85.304;2023-07-13T14:55:20;23.20;99.90
50907;DHT22;36882;27.680;85.304;2023-07-13T14:57:51;23.20;99.90
50907;DHT22;36882;27.680;85.304;2023-07-13T15:00:23;23.20;99.90
50907;DHT22;36882;27.680;85.304;2023-07-13T15:02:56;23.20;99.90
50907;DHT22;36882;27.680;85.304;2023-07-13T15:05:29;23.10;99.90
50907;DHT22;36882;27.680;85.304;2023-07-13T15:08:02;23.10;99.90
50907;DHT22;36882;27.680;85.304;2023-07-13T15:10:33;23.10;99.90
50907;DHT22;36882;27.680;85.304;2023-07-13T15:13:22;23.10;99.90
50907;DHT22;36882;27.680;85.304;2023-07-13T15:15:57;23.10;99.90
50907;DHT22;36882;27.680;85.304;2023-07-13T15:18:29;23.10;99.90
50907;DHT22;36882;27.680;85.304;2023-07-13T15:20:59;23.10;99.90
50907;DHT22;36882;27.680;85.304;2023-07-13T15:23:33;23.10;99.90
50907;DHT22;36882;27.680;85.304;2023-07-13T15:26:03;23.10;99.90
50907;DHT22;36882;27.680;85.304;2023-07-13T15:28:32;23.00;99.90
50907;DHT22;36882;27.680;85.304;2023-07-13T15:31:19;22.90;99.90
50907;DHT22;36882;27.680;85.304;2023-07-13T15:33:54;22.90;99.90
50907;DHT22;36882;27.680;85.304;2023-07-13T15:36:26;22.90;99.90
50907;DHT22;36882;27.680;85.304;2023-07-13T15:38:58;22.90;99.90
50907;DHT22;36882;27.680;85.304;2023-07-13T15:41:30;23.00;99.90
50907;DHT22;36882;27.680;85.304;2023-07-13T15:44:12;23.00;99.90
50907;DHT22;36882;27.680;85.304;2023-07-13T15:46:49;23.10;99.90
50907;DHT22;36882;27.680;85.304;2023-07-13T15:49:22;23.00;99.90
50907;DHT22;36882;27.680;85.304;2023-07-13T15:51:52;23.00;99.90
50907;DHT22;36882;27.680;85.304;2023-07-13T15:54:23;23.10;99.90
50907;DHT22;36882;27.680;85.304;2023-07-13T15:56:55;23.20;99.90
50907;DHT22;36882;27.680;85.304;2023-07-13T15:59:25;23.10;99.90
50907;DHT22;36882;27.680;85.304;2023-07-13T16:01:54;23.00;99.90
50907;DHT22;36882;27.680;85.304;2023-07-13T16:04:33;23.00;99.90
50907;DHT22;36882;27.680;85.304;2023-07-13T16:07:03;23.00;99.90
50907;DHT22;36882;27.680;85.304;2023-07-13T16:09:32;23.10;99.90
50907;DHT22;36882;27.680;85.304;2023-07-13T16:12:04;23.10;99.90
50907;DHT22;36882;27.680;85.304;2023-07-13T16:14:35;23.10;99.90
50907;DHT22;36882;27.680;85.304;2023-07-13T16:17:08;23.10;99.90
50907;DHT22;36882;27.680;85.304;2023-07-13T16:19:40;23.00;99.90
50907;DHT22;36882;27.680;85.304;2023-07-13T16:22:16;23.00;99.90
50907;DHT22;36882;27.680;85.304;2023-07-13T16:24:46;23.00;99.90
50907;DHT22;36882;27.680;85.304;2023-07-13T16:27:15;23.00;99.90
50907;DHT22;36882;27.680;85.304;2023-07-13T16:29:46;23.00;99.90
50907;DHT22;36882;27.680;85.304;2023-07-13T16:32:15;23.00;99.90
50907;DHT22;36882;27.680;85.304;2023-07-13T16:34:45;22.90;99.90
50907;DHT22;36882;27.680;85.304;2023-07-13T16:37:15;22.90;99.90
50907;DHT22;36882;27.680;85.304;2023-07-13T16:39:50;22.90;99.90
50907;DHT22;36882;27.680;85.304;2023-07-13T16:42:24;22.70;99.90
50907;DHT22;36882;27.680;85.304;2023-07-13T16:44:57;22.80;99.90
50907;DHT22;36882;27.680;85.304;2023-07-13T16:47:27;22.80;99.90
50907;DHT22;36882;27.680;85.304;2023-07-13T16:49:56;22.80;99.90
50907;DHT22;36882;27.680;85.304;2023-07-13T16:52:27;22.90;99.90
50907;DHT22;36882;27.680;85.304;2023-07-13T16:54:56;22.90;99.90
50907;DHT22;36882;27.680;85.304;2023-07-13T16:57:32;22.80;99.90
50907;DHT22;36882;27.680;85.304;2023-07-13T17:00:09;22.80;99.90
50907;DHT22;36882;27.680;85.304;2023-07-13T17:02:46;22.80;99.90
50907;DHT22;36882;27.680;85.304;2023-07-13T17:05:16;22.80;99.90
50907;DHT22;36882;27.680;85.304;2023-07-13T17:07:48;22.80;99.90
50907;DHT22;36882;27.680;85.304;2023-07-13T17:10:21;22.80;99.90
50907;DHT22;36882;27.680;85.304;2023-07-13T17:12:54;22.90;99.90
50907;DHT22;36882;27.680;85.304;2023-07-13T17:15:24;22.80;99.90
50907;DHT22;36882;27.680;85.304;2023-07-13T17:17:57;22.90;99.90
50907;DHT22;36882;27.680;85.304;2023-07-13T17:20:37;22.90;99.90
50907;DHT22;36882;27.680;85.304;2023-07-13T17:23:25;22.90;99.90
50907;DHT22;36882;27.680;85.304;2023-07-13T17:25:55;22.90;99.90
50907;DHT22;36882;27.680;85.304;2023-07-13T17:28:25;22.80;99.90
50907;DHT22;36882;27.680;85.304;2023-07-13T17:30:58;22.80;99.90
50907;DHT22;36882;27.680;85.304;2023-07-13T17:33:37;22.80;99.90
50907;DHT22;36882;27.680;85.304;2023-07-13T17:36:15;22.80;99.90
50907;DHT22;36882;27.680;85.304;2023-07-13T17:38:47;22.80;99.90
50907;DHT22;36882;27.680;85.304;2023-07-13T17:41:26;22.80;99.90
50907;DHT22;36882;27.680;85.304;2023-07-13T17:43:56;22.80;99.90
50907;DHT22;36882;27.680;85.304;2023-07-13T17:46:31;22.70;99.90
50907;DHT22;36882;27.680;85.304;2023-07-13T17:49:01;22.80;99.90
50907;DHT22;36882;27.680;85.304;2023-07-13T17:51:31;22.70;99.90
50907;DHT22;36882;27.680;85.304;2023-07-13T17:54:00;22.70;99.90
50907;DHT22;36882;27.680;85.304;2023-07-13T17:56:31;22.70;99.90
50907;DHT22;36882;27.680;85.304;2023-07-13T17:59:03;22.70;99.90
50907;DHT22;36882;27.680;85.304;2023-07-13T18:01:34;22.70;99.90
50907;DHT22;36882;27.680;85.304;2023-07-13T18:04:13;22.70;99.90
50907;DHT22;36882;27.680;85.304;2023-07-13T18:06:47;22.70;99.90
50907;DHT22;36882;27.680;85.304;2023-07-13T18:09:25;22.70;99.90
50907;DHT22;36882;27.680;85.304;2023-07-13T18:11:55;22.70;99.90
50907;DHT22;36882;27.680;85.304;2023-07-13T18:14:27;22.70;99.90
50907;DHT22;36882;27.680;85.304;2023-07-13T18:16:59;22.70;99.90
50907;DHT22;36882;27.680;85.304;2023-07-13T18:19:42;22.70;99.90
50907;DHT22;36882;27.680;85.304;2023-07-13T18:22:15;22.70;99.90
50907;DHT22;36882;27.680;85.304;2023-07-13T18:24:46;22.70;99.90
50907;DHT22;36882;27.680;85.304;2023-07-13T18:27:16;22.70;99.90
50907;DHT22;36882;27.680;85.304;2023-07-13T18:29:46;22.70;99.90
50907;DHT22;36882;27.680;85.304;2023-07-13T18:32:18;22.60;99.90
50907;DHT22;36882;27.680;85.304;2023-07-13T18:34:49;22.60;99.90
50907;DHT22;36882;27.680;85.304;2023-07-13T18:37:22;22.60;99.90
50907;DHT22;36882;27.680;85.304;2023-07-13T18:39:52;22.60;99.90
50907;DHT22;36882;27.680;85.304;2023-07-13T18:42:23;22.60;99.90
50907;DHT22;36882;27.680;85.304;2023-07-13T18:44:53;22.60;99.90
50907;DHT22;36882;27.680;85.304;2023-07-13T18:47:25;22.70;99.90
50907;DHT22;36882;27.680;85.304;2023-07-13T18:50:01;22.70;99.90
50907;DHT22;36882;27.680;85.304;2023-07-13T18:52:31;22.60;99.90
50907;DHT22;36882;27.680;85.304;2023-07-13T18:55:01;22.60;99.90
50907;DHT22;36882;27.680;85.304;2023-07-13T18:57:31;22.60;99.90
50907;DHT22;36882;27.680;85.304;2023-07-13T19:00:01;22.60;99.90
50907;DHT22;36882;27.680;85.304;2023-07-13T19:02:33;22.60;99.90
50907;DHT22;36882;27.680;85.304;2023-07-13T19:05:12;22.50;99.90
50907;DHT22;36882;27.680;85.304;2023-07-13T19:07:43;22.50;99.90
50907;DHT22;36882;27.680;85.304;2023-07-13T19:10:24;22.50;99.90
50907;DHT22;36882;27.680;85.304;2023-07-13T19:12:57;22.50;99.90
50907;DHT22;36882;27.680;85.304;2023-07-13T19:15:32;22.50;99.90
50907;DHT22;36882;27.680;85.304;2023-07-13T19:18:12;22.40;99.90
50907;DHT22;36882;27.680;85.304;2023-07-13T19:20:42;22.50;99.90
50907;DHT22;36882;27.680;85.304;2023-07-13T19:25:55;22.50;99.90
50907;DHT22;36882;27.680;85.304;2023-07-13T19:28:37;22.60;99.90
50907;DHT22;36882;27.680;85.304;2023-07-13T19:31:35;22.60;99.90